createdAt,value
2023-03-25T00:00:44.738Z,71.10
2023-03-25T00:03:50.607Z,71.40
2023-03-25T00:06:57.290Z,72.20
2023-03-25T00:10:00.445Z,72.50
2023-03-25T00:13:06.905Z,72.60
2023-03-25T00:16:10.873Z,72.70
2023-03-25T00:19:14.218Z,72.80
2023-03-25T00:22:18.068Z,73.10
2023-03-25T00:25:22.014Z,73.00
2023-03-25T00:28:28.420Z,73.00
2023-03-25T00:31:31.459Z,73.20
2023-03-25T00:34:35.202Z,73.20
2023-03-25T00:37:38.222Z,73.00
2023-03-25T00:40:43.259Z,73.00
2023-03-25T00:43:47.813Z,73.20
2023-03-25T00:46:51.204Z,73.30
2023-03-25T00:49:54.307Z,73.40
2023-03-25T00:52:57.531Z,73.20
2023-03-25T00:56:01.325Z,73.30
2023-03-25T00:59:06.071Z,73.30
2023-03-25T01:02:11.651Z,73.70
2023-03-25T01:05:15.172Z,73.90
2023-03-25T01:08:19.753Z,74.10
2023-03-25T01:11:24.542Z,74.00
2023-03-25T01:14:29.228Z,73.90
2023-03-25T01:17:32.283Z,74.20
2023-03-25T01:20:35.449Z,74.00
2023-03-25T01:23:38.587Z,74.00
2023-03-25T01:26:43.562Z,74.10
2023-03-25T01:29:48.284Z,74.00
2023-03-25T01:32:51.547Z,74.00
2023-03-25T01:35:54.860Z,73.90
2023-03-25T01:38:59.271Z,74.20
2023-03-25T01:42:02.837Z,74.20
2023-03-25T01:45:20.302Z,74.30
2023-03-25T01:48:27.946Z,74.40
2023-03-25T01:51:35.348Z,74.40
2023-03-25T01:54:38.877Z,74.30
2023-03-25T01:57:46.365Z,74.20
2023-03-25T02:00:52.048Z,74.10
2023-03-25T02:04:03.198Z,74.00
2023-03-25T02:07:08.804Z,74.00
2023-03-25T02:10:13.501Z,74.00
2023-03-25T02:13:17.378Z,74.20
2023-03-25T02:16:29.503Z,74.30
2023-03-25T02:20:08.349Z,74.50
2023-03-25T02:23:34.692Z,74.50
2023-03-25T02:27:16.662Z,74.70
2023-03-25T02:31:06.563Z,74.70
2023-03-25T02:34:39.305Z,74.80
2023-03-25T02:38:09.246Z,74.90
2023-03-25T02:41:17.401Z,74.60
2023-03-25T02:44:31.007Z,74.60
2023-03-25T02:47:37.423Z,74.30
2023-03-25T02:50:44.866Z,74.30
2023-03-25T02:53:51.201Z,74.40
2023-03-25T02:56:57.681Z,74.40
2023-03-25T03:00:02.366Z,74.60
2023-03-25T03:03:07.370Z,74.60
2023-03-25T03:06:17.748Z,74.70
2023-03-25T03:09:33.106Z,74.80
2023-03-25T03:12:50.887Z,74.80
2023-03-25T03:16:04.196Z,74.70
2023-03-25T03:19:21.212Z,74.70
2023-03-25T03:22:40.747Z,74.50
2023-03-25T03:25:51.902Z,74.40
2023-03-25T03:29:03.564Z,74.30
2023-03-25T03:32:10.019Z,74.00
2023-03-25T03:35:18.391Z,74.40
2023-03-25T03:38:25.377Z,74.70
2023-03-25T03:41:37.196Z,75.40
2023-03-25T03:44:42.592Z,76.00
2023-03-25T03:47:50.592Z,76.20
2023-03-25T03:50:57.898Z,76.70
2023-03-25T03:54:07.588Z,76.60
2023-03-25T03:57:21.857Z,76.80
2023-03-25T04:00:30.949Z,76.70
2023-03-25T04:03:39.303Z,77.20
2023-03-25T04:06:46.864Z,77.50
2023-03-25T04:09:58.339Z,77.60
2023-03-25T04:13:06.136Z,77.80
2023-03-25T04:16:09.959Z,77.80
2023-03-25T04:19:13.988Z,77.60
2023-03-25T04:22:19.685Z,77.80
2023-03-25T04:25:25.461Z,77.60
2023-03-25T04:28:31.735Z,77.70
2023-03-25T04:31:34.890Z,77.70
2023-03-25T04:34:37.845Z,77.70
2023-03-25T04:37:41.652Z,77.50
2023-03-25T04:40:46.967Z,77.20
2023-03-25T04:43:51.750Z,77.10
2023-03-25T04:46:56.010Z,76.90
2023-03-25T04:49:59.034Z,76.90
2023-03-25T04:53:02.021Z,76.90
2023-03-25T04:56:13.046Z,76.50
2023-03-25T04:59:18.128Z,76.20
2023-03-25T05:02:24.047Z,76.30
2023-03-25T05:05:27.412Z,76.50
2023-03-25T05:08:31.203Z,76.40
2023-03-25T05:11:36.123Z,76.40
2023-03-25T05:14:40.786Z,75.80
2023-03-25T05:17:49.962Z,75.40
2023-03-25T05:20:53.477Z,75.50
2023-03-25T05:23:58.119Z,75.40
2023-03-25T05:27:02.419Z,75.50
2023-03-25T05:30:08.448Z,75.40
2023-03-25T05:33:12.118Z,75.30
2023-03-25T05:36:16.677Z,75.40
2023-03-25T05:40:01.190Z,75.70
2023-03-25T05:43:06.646Z,75.40
2023-03-25T05:46:11.012Z,75.30
2023-03-25T05:49:14.355Z,75.20
2023-03-25T05:52:18.264Z,75.10
2023-03-25T05:55:23.558Z,74.50
2023-03-25T05:58:26.786Z,73.80
2023-03-25T06:01:34.138Z,73.90
2023-03-25T06:04:41.217Z,73.80
2023-03-25T06:07:45.972Z,73.30
2023-03-25T06:10:49.203Z,72.70
2023-03-25T06:13:52.853Z,72.80
2023-03-25T06:16:58.553Z,73.00
2023-03-25T06:20:06.559Z,72.10
2023-03-25T06:23:09.945Z,72.50
2023-03-25T06:26:12.968Z,71.90
2023-03-25T06:29:16.217Z,71.90
2023-03-25T06:32:20.663Z,71.10
2023-03-25T06:35:23.698Z,71.10
2023-03-25T06:38:30.069Z,71.00
2023-03-25T06:41:35.910Z,70.90
2023-03-25T06:44:38.981Z,70.80
2023-03-25T06:47:43.575Z,70.70
2023-03-25T06:50:46.682Z,70.80
2023-03-25T06:53:49.682Z,70.70
2023-03-25T06:56:53.323Z,70.50
2023-03-25T06:59:56.338Z,71.00
2023-03-25T07:03:01.770Z,71.00
2023-03-25T07:06:05.791Z,71.00
2023-03-25T07:09:09.184Z,70.90
2023-03-25T07:12:12.309Z,71.40
2023-03-25T07:15:16.329Z,71.10
2023-03-25T07:18:23.043Z,70.90
2023-03-25T07:21:26.353Z,70.30
2023-03-25T07:24:29.432Z,70.60
2023-03-25T07:27:32.457Z,70.50
2023-03-25T07:30:35.807Z,69.70
2023-03-25T07:33:40.677Z,69.00
2023-03-25T07:36:43.658Z,67.20
2023-03-25T07:39:46.673Z,66.70
2023-03-25T07:42:49.803Z,66.10
2023-03-25T07:45:52.793Z,66.10
2023-03-25T07:48:57.191Z,66.20
2023-03-25T07:52:00.234Z,65.10
2023-03-25T07:55:03.325Z,65.40
2023-03-25T07:58:06.309Z,64.90
2023-03-25T08:01:09.445Z,64.50
2023-03-25T08:04:14.788Z,64.00
2023-03-25T08:07:17.771Z,63.70
2023-03-25T08:10:21.196Z,63.90
2023-03-25T08:13:24.195Z,63.40
2023-03-25T08:16:27.453Z,63.50
2023-03-25T08:19:31.879Z,63.60
2023-03-25T08:22:37.479Z,63.50
2023-03-25T08:25:41.996Z,63.20
2023-03-25T08:28:47.583Z,62.50
2023-03-25T08:31:52.396Z,62.20
2023-03-25T08:34:57.681Z,61.60
2023-03-25T08:38:05.263Z,60.70
2023-03-25T08:41:08.634Z,61.00
2023-03-25T08:44:12.089Z,60.90
2023-03-25T08:47:15.299Z,60.60
2023-03-25T08:50:20.038Z,60.60
2023-03-25T08:53:23.138Z,60.70
2023-03-25T08:56:26.056Z,60.90
2023-03-25T08:59:29.294Z,59.90
2023-03-25T09:02:32.358Z,60.50
2023-03-25T09:05:38.957Z,60.20
2023-03-25T09:08:42.099Z,60.50
2023-03-25T09:11:45.515Z,61.20
2023-03-25T09:14:48.426Z,60.50
2023-03-25T09:17:51.548Z,60.20
2023-03-25T09:21:00.286Z,60.40
2023-03-25T09:24:03.539Z,59.70
2023-03-25T09:27:06.531Z,59.20
2023-03-25T09:30:10.825Z,58.60
2023-03-25T09:33:14.208Z,59.20
2023-03-25T09:36:19.005Z,58.70
2023-03-25T09:39:22.604Z,58.40
2023-03-25T09:42:41.724Z,58.40
2023-03-25T09:45:47.064Z,58.50
2023-03-25T09:48:51.516Z,58.70
2023-03-25T09:51:57.044Z,58.70
2023-03-25T09:55:03.670Z,59.10
2023-03-25T09:58:24.894Z,58.70
2023-03-25T10:01:38.938Z,58.40
2023-03-25T10:04:53.212Z,58.50
2023-03-25T10:08:16.241Z,57.80
2023-03-25T10:11:31.290Z,57.20
2023-03-25T10:14:44.041Z,57.60
2023-03-25T10:18:02.748Z,57.20
2023-03-25T10:21:12.107Z,57.60
2023-03-25T10:24:21.236Z,57.30
2023-03-25T10:27:33.480Z,57.10
2023-03-25T10:30:45.487Z,57.70
2023-03-25T10:33:54.240Z,56.80
2023-03-25T10:37:07.233Z,56.40
2023-03-25T10:40:27.287Z,56.10
2023-03-25T10:43:33.508Z,55.30
2023-03-25T10:46:47.673Z,55.30
2023-03-25T10:49:52.417Z,55.40
2023-03-25T10:52:57.354Z,54.90
2023-03-25T10:56:05.744Z,55.00
2023-03-25T10:59:18.991Z,55.10
2023-03-25T11:02:26.258Z,55.00
2023-03-25T11:06:11.659Z,55.50
2023-03-25T11:09:25.335Z,54.60
2023-03-25T11:12:42.820Z,54.00
2023-03-25T11:15:47.573Z,54.50
2023-03-25T11:18:54.312Z,54.40
2023-03-25T11:22:01.674Z,54.60
2023-03-25T11:25:07.930Z,54.60
2023-03-25T11:28:16.916Z,54.70
2023-03-25T11:31:23.696Z,54.80
2023-03-25T11:34:27.810Z,54.70
2023-03-25T11:37:32.268Z,55.60
2023-03-25T11:40:36.425Z,55.90
2023-03-25T11:43:41.979Z,55.30
2023-03-25T11:46:47.736Z,55.20
2023-03-25T11:49:53.274Z,56.20
2023-03-25T11:52:58.949Z,57.00
2023-03-25T11:56:05.978Z,56.30
2023-03-25T11:59:19.054Z,55.90
2023-03-25T12:02:27.213Z,56.00
2023-03-25T12:05:30.964Z,55.70
2023-03-25T12:08:44.513Z,55.80
2023-03-25T12:11:54.679Z,55.70
2023-03-25T12:15:12.821Z,55.50
2023-03-25T12:18:34.689Z,55.60
2023-03-25T12:21:56.864Z,56.10
2023-03-25T12:25:29.156Z,56.10
2023-03-25T12:29:01.040Z,55.80
2023-03-25T12:32:18.540Z,55.80
2023-03-25T12:35:32.911Z,54.90
2023-03-25T12:38:46.594Z,54.50
2023-03-25T12:42:00.418Z,54.20
2023-03-25T12:45:26.507Z,54.40
2023-03-25T12:48:51.698Z,54.60
2023-03-25T12:52:04.940Z,54.80
2023-03-25T12:55:34.458Z,54.50
2023-03-25T12:59:02.399Z,53.90
2023-03-25T13:02:18.812Z,54.60
2023-03-25T13:05:30.912Z,54.40
2023-03-25T13:08:39.721Z,54.70
2023-03-25T13:11:47.080Z,55.50
2023-03-25T13:14:56.884Z,56.10
2023-03-25T13:18:04.458Z,56.60
2023-03-25T13:21:14.405Z,57.20
2023-03-25T13:24:21.594Z,58.20
2023-03-25T13:27:25.427Z,62.10
2023-03-25T13:30:34.355Z,64.00
2023-03-25T13:33:43.061Z,64.70
2023-03-25T13:36:57.767Z,65.20
2023-03-25T13:40:18.609Z,66.10
2023-03-25T13:43:29.981Z,67.80
2023-03-25T13:46:37.871Z,68.00
2023-03-25T13:49:46.645Z,68.00
2023-03-25T13:53:07.501Z,68.30
2023-03-25T13:56:34.940Z,68.30
2023-03-25T14:00:07.546Z,69.00
2023-03-25T14:03:45.561Z,68.90
2023-03-25T14:07:12.510Z,68.70
2023-03-25T14:10:31.358Z,68.40
2023-03-25T14:13:40.443Z,69.00
2023-03-25T14:16:46.997Z,68.10
2023-03-25T14:19:55.670Z,68.80
2023-03-25T14:23:00.435Z,68.50
2023-03-25T14:26:09.400Z,68.00
2023-03-25T14:29:32.480Z,66.70
2023-03-25T14:32:38.832Z,67.20
2023-03-25T14:36:02.754Z,66.80
2023-03-25T14:39:12.548Z,64.80
2023-03-25T14:42:30.096Z,64.70
2023-03-25T14:45:48.179Z,63.40
2023-03-25T14:48:52.939Z,64.30
2023-03-25T14:51:59.486Z,63.40
2023-03-25T14:55:08.974Z,63.30
2023-03-25T14:58:21.987Z,63.20
2023-03-25T15:01:32.767Z,62.90
2023-03-25T15:04:41.427Z,63.10
2023-03-25T15:07:54.860Z,63.90
2023-03-25T15:11:18.005Z,64.00
2023-03-25T15:14:38.073Z,64.10
2023-03-25T15:17:45.256Z,63.70
2023-03-25T15:20:50.508Z,63.30
2023-03-25T15:24:01.112Z,63.30
2023-03-25T15:27:12.284Z,63.10
2023-03-25T15:30:42.169Z,63.10
2023-03-25T15:34:04.476Z,63.80
2023-03-25T15:37:46.158Z,63.50
2023-03-25T15:41:03.191Z,63.80
2023-03-25T15:44:39.334Z,63.50
2023-03-25T15:47:54.791Z,62.90
2023-03-25T15:51:14.786Z,62.80
2023-03-25T15:54:32.335Z,62.50
2023-03-25T15:57:39.304Z,62.70
2023-03-25T16:00:47.128Z,63.10
2023-03-25T16:04:02.048Z,62.70
2023-03-25T16:07:06.898Z,63.20
2023-03-25T16:10:45.622Z,62.50
2023-03-25T16:13:45.740Z,62.60
2023-03-25T16:16:52.756Z,63.20
2023-03-25T16:19:58.339Z,62.70
2023-03-25T16:23:03.251Z,63.70
2023-03-25T16:26:07.320Z,64.80
2023-03-25T16:29:17.787Z,66.10
2023-03-25T16:32:22.822Z,67.10
2023-03-25T16:35:29.148Z,68.20
2023-03-25T16:38:33.192Z,68.00
2023-03-25T16:41:37.388Z,68.20
2023-03-25T16:44:41.720Z,68.90
2023-03-25T16:47:46.877Z,68.70
2023-03-25T16:50:54.732Z,68.80
2023-03-25T16:54:00.328Z,68.90
2023-03-25T16:57:07.073Z,69.30
2023-03-25T17:00:20.656Z,69.30
2023-03-25T17:03:40.197Z,69.30
2023-03-25T17:06:47.362Z,69.60
2023-03-25T17:09:52.469Z,69.80
2023-03-25T17:12:58.669Z,69.90
2023-03-25T17:16:02.535Z,70.00
2023-03-25T17:19:06.270Z,70.20
2023-03-25T17:22:21.612Z,70.20
2023-03-25T17:25:28.474Z,70.30
2023-03-25T17:28:38.141Z,70.60
2023-03-25T17:31:42.337Z,70.90
2023-03-25T17:34:57.472Z,71.40
2023-03-25T17:38:02.365Z,71.60
2023-03-25T17:41:07.561Z,72.10
2023-03-25T17:44:16.554Z,72.00
2023-03-25T17:47:21.695Z,72.60
2023-03-25T17:50:27.536Z,72.50
2023-03-25T17:53:32.047Z,72.80
2023-03-25T17:56:38.491Z,72.30
2023-03-25T17:59:41.808Z,72.60
2023-03-25T18:02:45.138Z,72.60
2023-03-25T18:05:51.060Z,72.50
2023-03-25T18:08:55.846Z,72.70
2023-03-25T18:11:59.478Z,72.60
2023-03-25T18:15:02.809Z,72.50
2023-03-25T18:18:06.776Z,72.30
2023-03-25T18:21:11.672Z,72.40
2023-03-25T18:24:32.142Z,72.30
2023-03-25T18:27:43.241Z,72.30
2023-03-25T18:30:51.175Z,72.20
2023-03-25T18:33:55.786Z,72.10
2023-03-25T18:36:58.943Z,72.20
2023-03-25T18:40:06.870Z,71.90
2023-03-25T18:43:10.114Z,72.00
2023-03-25T18:46:14.052Z,71.20
2023-03-25T18:49:19.522Z,70.70
2023-03-25T18:52:22.558Z,70.20
2023-03-25T18:55:29.032Z,69.90
2023-03-25T18:58:33.512Z,70.00
2023-03-25T19:01:36.757Z,68.80
2023-03-25T19:04:50.440Z,69.00
2023-03-25T19:08:05.952Z,69.10
2023-03-25T19:11:19.917Z,68.80
2023-03-25T19:14:24.643Z,68.90
2023-03-25T19:17:27.974Z,69.00
2023-03-25T19:20:36.180Z,68.90
2023-03-25T19:23:41.816Z,69.00
2023-03-25T19:26:46.981Z,69.20
2023-03-25T19:29:50.463Z,68.80
2023-03-25T19:32:57.563Z,68.90
2023-03-25T19:36:04.490Z,68.80
2023-03-25T19:39:10.894Z,68.60
2023-03-25T19:42:16.169Z,68.00
2023-03-25T19:45:20.807Z,67.70
2023-03-25T19:48:24.165Z,67.90
2023-03-25T19:51:28.871Z,68.50
2023-03-25T19:54:32.438Z,68.80
2023-03-25T19:57:37.757Z,68.20
2023-03-25T20:00:42.178Z,68.00
2023-03-25T20:03:46.654Z,68.00
2023-03-25T20:06:49.988Z,68.00
2023-03-25T20:09:53.578Z,68.50
2023-03-25T20:12:58.985Z,68.70
2023-03-25T20:16:02.211Z,68.80
2023-03-25T20:19:05.565Z,69.00
2023-03-25T20:22:21.973Z,69.40
2023-03-25T20:25:28.071Z,69.80
2023-03-25T20:28:32.634Z,70.20
2023-03-25T20:31:35.854Z,70.60
2023-03-25T20:34:39.555Z,70.60
2023-03-25T20:37:43.780Z,70.90
2023-03-25T20:40:47.019Z,71.00
2023-03-25T20:43:54.341Z,71.10
2023-03-25T20:46:57.929Z,71.20
2023-03-25T20:50:01.086Z,71.20
2023-03-25T20:53:04.376Z,71.20
2023-03-25T20:56:07.884Z,71.50
2023-03-25T20:59:14.192Z,72.00
2023-03-25T21:02:18.086Z,71.60
2023-03-25T21:05:21.338Z,71.80
2023-03-25T21:08:25.939Z,72.20
2023-03-25T21:11:29.629Z,72.80
2023-03-25T21:14:34.255Z,73.20
2023-03-25T21:17:37.647Z,73.90
2023-03-25T21:20:40.979Z,74.20
2023-03-25T21:23:45.691Z,74.60
2023-03-25T21:26:49.265Z,75.20
2023-03-25T21:29:54.572Z,75.40
2023-03-25T21:32:58.239Z,75.30
2023-03-25T21:36:02.049Z,75.80
2023-03-25T21:39:07.092Z,76.10
2023-03-25T21:42:11.092Z,76.40
2023-03-25T21:45:18.123Z,76.70
2023-03-25T21:48:22.896Z,77.00
2023-03-25T21:51:26.695Z,77.10
2023-03-25T21:54:30.727Z,77.00
2023-03-25T21:57:39.035Z,76.70
2023-03-25T22:00:43.754Z,76.70
2023-03-25T22:03:47.317Z,76.40
2023-03-25T22:06:50.545Z,76.30
2023-03-25T22:09:53.770Z,76.30
2023-03-25T22:12:57.122Z,76.00
2023-03-25T22:16:01.922Z,76.20
2023-03-25T22:19:05.894Z,76.00
2023-03-25T22:22:11.149Z,76.40
2023-03-25T22:25:14.398Z,76.30
2023-03-25T22:28:17.568Z,76.40
2023-03-25T22:31:25.932Z,76.40
2023-03-25T22:34:30.849Z,76.10
2023-03-25T22:37:36.981Z,76.00
2023-03-25T22:40:40.353Z,76.20
2023-03-25T22:43:43.966Z,75.80
2023-03-25T22:46:49.522Z,75.70
2023-03-25T22:49:52.722Z,75.60
2023-03-25T22:52:55.893Z,75.20
2023-03-25T22:56:01.228Z,74.90
2023-03-25T22:59:07.005Z,74.50
2023-03-25T23:02:13.071Z,74.70
2023-03-25T23:05:19.435Z,74.50
2023-03-25T23:08:25.862Z,74.30
2023-03-25T23:11:30.565Z,74.50
2023-03-25T23:14:33.721Z,74.60
2023-03-25T23:17:38.264Z,74.70
2023-03-25T23:20:41.513Z,74.70
2023-03-25T23:23:53.375Z,74.30
2023-03-25T23:26:57.163Z,74.20
2023-03-25T23:30:00.590Z,74.10
2023-03-25T23:33:05.400Z,74.10
2023-03-25T23:36:09.819Z,74.00
2023-03-25T23:39:15.569Z,73.90
2023-03-25T23:42:18.690Z,74.30
2023-03-25T23:45:30.000Z,74.30
2023-03-25T23:48:40.570Z,74.10
2023-03-25T23:51:43.819Z,74.30
2023-03-25T23:54:48.709Z,74.40
2023-03-25T23:57:52.121Z,74.60
